Hauptseite
METAR-TAF:

METAR-TAF

Flughäfen :

Durham Tees Valley Airport

Durham, England

Breite: 54-31N, Länge: 001-25W, Höhe: 37 m

Beobachtung

Neuester Wetterbericht von vor 26 Minuten, um 15:20 UTC
Wind 7 kt aus Nordost
Temperatur 11°C
Luftfeuchtigkeit 76%
Luftdruck 1016 hPa
Sichtweite 10 km oder mehr
Leicht bewölkt in der Höhe von 2000 ft

METAR: EGNV 151520Z 04007KT 9999 FEW020 11/07 Q1016

Zeit: 16:46 (15:46 UTC)

Prognose

Neuester Wetterbericht von vor 1 Stunde und 48 Minuten, um 13:58 UTC
Gültige Prognose vom 15 um 15 UTC bis 15 um 21 UTC
Wind 10 kt aus Nord/Nordost
Sichtweite 10 km oder mehr
Leicht bewölkt in der Höhe von 1000 ft
Aufgelockert bewölkt in der Höhe von 2500 ft
Wahrscheinlichkeit 30% :
Zeitweise
vom 15 um 15 UTC bis 15 um 21 UTC
Sichtweite: 8000 m
Durchbrochene Bewölkung in der Höhe von 1400 ft
Leichtregen

TAF: EGNV 151358Z 1515/1521 03010KT 9999 FEW010 SCT025 PROB30 TEMPO 1515/1521 8000 -RA BKN014

Wetterbeobachtungen und Prognosen von mehr als 4000 Flughäfen (METAR und TAF Bericht).

Die verfügbaren Stationen werden durch gelbe und rote Markierungen auf der Karte dargestellt.

Führen Sie die Maus auf sie, um den Namen der Station zu sehen.

Darauf klicken, um die Beobachtung von Wetterbeobachtungen und Prognosen zu sehen.

Um die Karte zu ändern : klicken Sie auf den grünen Tasten mit einem schwarzen Kreuz Zum Vergrößern, auf den grünen Button mit einem Gedankenstrich zu verkleinern, oder auf die grünen Pfeile für benachbarte Karten.


METAR-TAF: